Time;durP1;ratioP1;P1;durP2;ratioP2;P2;SDS_P1;SDS_P2;PMS_P1;PMS_P2;Temp;Humidity;BMP_temperature;BMP_pressure;BME280_temperature;BME280_humidity;BME280_pressure;Samples;Min_cycle;Max_cycle;Signal;HPM_P1;HPM_P2
2022/03/07 00:01:57;;;;;;;16.45;13.95;;;;;;;;;;5055825;28;20443;-62
2022/03/07 00:04:43;;;;;;;18.02;13.40;;;;;;;;;;5055697;28;20051;-62
2022/03/07 00:07:19;;;;;;;14.07;12.57;;;;;;;;;;5054404;28;20028;-62
2022/03/07 00:09:44;;;;;;;18.27;14.25;;;;;;;;;;5055598;28;20060;-61
2022/03/07 00:12:10;;;;;;;16.35;12.57;;;;;;;;;;5054383;28;20055;-61
2022/03/07 00:14:35;;;;;;;16.80;13.80;;;;;;;;;;5055623;28;20083;-61
2022/03/07 00:17:01;;;;;;;14.90;12.50;;;;;;;;;;5054870;28;20069;-61
2022/03/07 00:19:29;;;;;;;16.23;13.02;;;;;;;;;;5055241;28;20078;-62
2022/03/07 00:21:54;;;;;;;15.35;12.15;;;;;;;;;;5054675;28;20044;-63
2022/03/07 00:24:32;;;;;;;14.65;12.35;;;;;;;;;;5055551;28;20036;-62
2022/03/07 00:27:06;;;;;;;15.65;12.00;;;;;;;;;;5054073;28;20044;-61
2022/03/07 00:29:32;;;;;;;13.98;11.95;;;;;;;;;;5054070;28;20033;-61
2022/03/07 00:31:57;;;;;;;15.00;12.15;;;;;;;;;;5055144;28;20025;-61
2022/03/07 00:34:23;;;;;;;13.88;11.75;;;;;;;;;;5054906;28;20045;-61
2022/03/07 00:36:49;;;;;;;13.35;11.65;;;;;;;;;;5053676;28;20024;-61
2022/03/07 00:39:14;;;;;;;15.23;11.88;;;;;;;;;;5053969;28;20076;-62
2022/03/07 00:41:40;;;;;;;18.00;13.38;;;;;;;;;;5054846;28;20348;-62
2022/03/07 00:44:05;;;;;;;17.58;12.90;;;;;;;;;;5053596;28;20422;-61
2022/03/07 00:46:31;;;;;;;16.98;13.00;;;;;;;;;;5054056;28;20020;-61
2022/03/07 00:48:56;;;;;;;29.45;20.83;;;;;;;;;;5053560;28;20360;-61
2022/03/07 00:51:23;;;;;;;38.75;25.52;;;;;;;;;;5055089;28;20051;-61
2022/03/07 00:53:49;;;;;;;17.98;14.20;;;;;;;;;;5053660;28;20120;-62
2022/03/07 00:56:14;;;;;;;17.83;13.50;;;;;;;;;;5055077;28;20104;-61
2022/03/07 00:58:40;;;;;;;19.08;14.70;;;;;;;;;;5053358;28;20512;-61
2022/03/07 01:01:05;;;;;;;49.03;25.20;;;;;;;;;;5054559;28;20050;-61
2022/03/07 01:03:31;;;;;;;41.10;22.33;;;;;;;;;;5052813;28;20021;-61
2022/03/07 01:05:56;;;;;;;18.70;14.98;;;;;;;;;;5036632;28;20032;-61
2022/03/07 01:08:22;;;;;;;18.70;14.02;;;;;;;;;;5053119;28;20029;-61
2022/03/07 01:10:48;;;;;;;44.95;24.08;;;;;;;;;;5053925;28;20182;-61
2022/03/07 01:13:14;;;;;;;23.02;15.63;;;;;;;;;;5054363;28;20526;-60
2022/03/07 01:15:39;;;;;;;50.22;26.60;;;;;;;;;;5054157;28;20035;-60
2022/03/07 01:18:05;;;;;;;59.25;29.17;;;;;;;;;;5052965;28;20029;-61
2022/03/07 01:20:30;;;;;;;79.07;36.80;;;;;;;;;;5036252;28;20027;-61
2022/03/07 01:22:56;;;;;;;61.17;27.85;;;;;;;;;;5053228;28;20095;-61
2022/03/07 01:25:22;;;;;;;55.83;26.08;;;;;;;;;;5054076;28;20032;-61
2022/03/07 01:27:48;;;;;;;24.00;16.73;;;;;;;;;;5053942;28;20025;-60
2022/03/07 01:30:14;;;;;;;32.38;19.08;;;;;;;;;;5054028;28;20421;-61
2022/03/07 01:32:40;;;;;;;26.15;17.42;;;;;;;;;;5052657;28;20036;-61
2022/03/07 01:35:06;;;;;;;20.88;14.60;;;;;;;;;;5052706;28;20379;-61
2022/03/07 01:37:32;;;;;;;97.55;43.15;;;;;;;;;;5052728;28;20041;-61
2022/03/07 01:39:57;;;;;;;52.83;27.95;;;;;;;;;;5054336;28;20024;-62
2022/03/07 01:42:25;;;;;;;22.02;15.90;;;;;;;;;;5052660;28;20115;-61
2022/03/07 01:44:51;;;;;;;39.35;21.50;;;;;;;;;;5036082;28;20087;-62
2022/03/07 01:47:17;;;;;;;20.42;14.77;;;;;;;;;;5053873;28;20033;-62
2022/03/07 01:49:43;;;;;;;19.90;15.00;;;;;;;;;;5053806;28;20028;-61
2022/03/07 01:52:09;;;;;;;18.55;15.15;;;;;;;;;;5035955;28;20032;-61
2022/03/07 01:54:34;;;;;;;18.95;14.07;;;;;;;;;;5052384;28;20025;-61
2022/03/07 01:57:01;;;;;;;19.65;14.45;;;;;;;;;;5052246;28;20043;-62
2022/03/07 01:59:27;;;;;;;20.48;15.30;;;;;;;;;;5035894;28;20021;-61
2022/03/07 02:01:54;;;;;;;18.65;14.95;;;;;;;;;;5068934;28;20063;-61
2022/03/07 02:04:20;;;;;;;19.75;14.75;;;;;;;;;;5052646;28;20377;-61
2022/03/07 02:06:47;;;;;;;21.65;15.18;;;;;;;;;;5051439;28;20033;-61
2022/03/07 02:09:15;;;;;;;17.35;14.38;;;;;;;;;;5052140;28;20037;-62
2022/03/07 02:11:44;;;;;;;17.85;14.27;;;;;;;;;;5052322;28;20031;-61
2022/03/07 02:14:12;;;;;;;19.23;14.77;;;;;;;;;;5053528;28;20020;-61
2022/03/07 02:16:39;;;;;;;18.02;14.55;;;;;;;;;;5052489;28;20345;-61
2022/03/07 02:19:05;;;;;;;17.85;14.00;;;;;;;;;;5052102;28;20055;-61
2022/03/07 02:21:32;;;;;;;18.05;14.80;;;;;;;;;;5051722;28;20029;-61
2022/03/07 02:24:10;;;;;;;18.13;14.07;;;;;;;;;;5051963;28;20062;-61
2022/03/07 02:26:36;;;;;;;17.88;14.30;;;;;;;;;;5051974;28;20029;-61
2022/03/07 02:29:03;;;;;;;20.55;14.77;;;;;;;;;;5035553;28;20108;-61
2022/03/07 02:31:31;;;;;;;17.88;13.90;;;;;;;;;;5051919;28;20132;-60
2022/03/07 02:33:59;;;;;;;17.35;14.48;;;;;;;;;;5051970;28;20378;-61
2022/03/07 02:36:24;;;;;;;17.58;14.13;;;;;;;;;;5053498;28;20035;-62
2022/03/07 02:38:51;;;;;;;18.92;14.07;;;;;;;;;;5051853;28;20475;-61
2022/03/07 02:41:16;;;;;;;16.55;13.40;;;;;;;;;;5051830;28;20029;-61
2022/03/07 02:43:46;;;;;;;16.35;13.65;;;;;;;;;;5051853;28;20043;-61
2022/03/07 02:46:12;;;;;;;19.80;14.52;;;;;;;;;;5051724;28;20558;-61
2022/03/07 02:48:37;;;;;;;20.48;14.07;;;;;;;;;;5051798;28;20017;-61
2022/03/07 02:51:03;;;;;;;18.70;14.23;;;;;;;;;;5051821;28;20029;-61
2022/03/07 02:53:29;;;;;;;18.10;14.05;;;;;;;;;;5053214;28;20048;-61
2022/03/07 02:55:55;;;;;;;20.65;16.45;;;;;;;;;;5053067;28;20064;-61
2022/03/07 02:58:20;;;;;;;45.95;33.33;;;;;;;;;;5052816;28;20048;-61
2022/03/07 03:00:46;;;;;;;42.10;30.35;;;;;;;;;;5052919;28;20123;-61
2022/03/07 03:03:11;;;;;;;31.00;21.98;;;;;;;;;;5052719;28;20033;-62
2022/03/07 03:05:36;;;;;;;21.80;14.85;;;;;;;;;;5052984;28;20391;-61
2022/03/07 03:08:02;;;;;;;18.73;15.02;;;;;;;;;;5051762;28;20025;-62
2022/03/07 03:10:27;;;;;;;17.30;14.07;;;;;;;;;;5054999;28;20478;-61
2022/03/07 03:12:53;;;;;;;19.38;14.27;;;;;;;;;;5056659;28;20021;-62
2022/03/07 03:15:18;;;;;;;19.58;15.05;;;;;;;;;;5055288;28;20032;-61
2022/03/07 03:17:44;;;;;;;19.58;14.05;;;;;;;;;;5056678;28;20023;-61
2022/03/07 03:20:11;;;;;;;18.17;13.98;;;;;;;;;;5056349;28;20091;-62
2022/03/07 03:22:40;;;;;;;16.50;14.10;;;;;;;;;;5055929;28;20525;-62
2022/03/07 03:25:06;;;;;;;18.60;14.07;;;;;;;;;;5056651;28;20029;-62
2022/03/07 03:27:31;;;;;;;18.20;14.13;;;;;;;;;;5056369;28;20056;-62
2022/03/07 03:29:57;;;;;;;18.90;14.30;;;;;;;;;;5056139;28;20032;-62
2022/03/07 03:32:22;;;;;;;20.02;14.50;;;;;;;;;;5056063;28;20021;-62
2022/03/07 03:35:01;;;;;;;22.00;14.63;;;;;;;;;;5056231;28;20044;-62
2022/03/07 03:37:40;;;;;;;22.42;16.10;;;;;;;;;;5054978;28;20033;-63
2022/03/07 03:40:19;;;;;;;21.50;15.30;;;;;;;;;;5054659;28;20024;-62
2022/03/07 03:42:57;;;;;;;21.52;16.00;;;;;;;;;;5039687;28;20068;-63
2022/03/07 03:45:22;;;;;;;23.02;15.73;;;;;;;;;;5056061;28;20091;-62
2022/03/07 03:47:47;;;;;;;19.58;14.90;;;;;;;;;;5056070;28;20483;-63
2022/03/07 03:50:13;;;;;;;20.60;14.77;;;;;;;;;;5056115;28;20024;-62
2022/03/07 03:52:39;;;;;;;22.52;15.80;;;;;;;;;;5055748;28;20075;-63
2022/03/07 03:55:06;;;;;;;21.85;15.00;;;;;;;;;;5055834;28;20052;-63
2022/03/07 03:57:31;;;;;;;19.73;13.95;;;;;;;;;;5055863;28;20053;-62
2022/03/07 03:59:56;;;;;;;21.52;14.77;;;;;;;;;;5055804;28;20064;-62
2022/03/07 04:02:22;;;;;;;19.17;14.05;;;;;;;;;;5056034;28;20112;-62
2022/03/07 04:04:48;;;;;;;18.65;14.45;;;;;;;;;;5055683;28;20025;-62
2022/03/07 04:07:13;;;;;;;16.65;13.88;;;;;;;;;;5055716;28;20019;-63
2022/03/07 04:09:39;;;;;;;17.15;13.73;;;;;;;;;;5054754;28;20056;-63
2022/03/07 04:12:05;;;;;;;17.30;13.20;;;;;;;;;;5055602;28;20100;-62
2022/03/07 04:14:30;;;;;;;16.77;13.07;;;;;;;;;;5055520;28;20382;-62
2022/03/07 04:16:56;;;;;;;18.77;13.77;;;;;;;;;;5055427;28;20025;-62
2022/03/07 04:19:21;;;;;;;17.73;13.10;;;;;;;;;;5054123;28;20036;-62
2022/03/07 04:21:46;;;;;;;16.60;12.30;;;;;;;;;;5054615;28;20024;-62
2022/03/07 04:24:12;;;;;;;16.35;12.23;;;;;;;;;;5055472;28;20470;-61
2022/03/07 04:26:38;;;;;;;16.45;12.30;;;;;;;;;;5055338;28;20056;-61
2022/03/07 04:29:07;;;;;;;15.00;12.38;;;;;;;;;;5054234;28;20029;-62
2022/03/07 04:31:36;;;;;;;15.50;12.20;;;;;;;;;;5055374;28;20075;-62
2022/03/07 04:34:02;;;;;;;15.15;11.88;;;;;;;;;;5053860;28;20041;-62
2022/03/07 04:36:28;;;;;;;14.98;12.43;;;;;;;;;;5054974;28;20067;-62
2022/03/07 04:38:53;;;;;;;15.55;11.80;;;;;;;;;;5054974;28;20025;-62
2022/03/07 04:41:19;;;;;;;16.02;12.68;;;;;;;;;;5054778;28;20012;-62
2022/03/07 04:43:44;;;;;;;14.68;11.90;;;;;;;;;;5055057;28;20064;-62
2022/03/07 04:46:10;;;;;;;15.18;11.50;;;;;;;;;;5054829;28;20086;-62
2022/03/07 04:48:36;;;;;;;14.90;11.80;;;;;;;;;;5055002;28;20060;-62
2022/03/07 04:51:02;;;;;;;13.07;11.68;;;;;;;;;;5054479;28;20021;-61
2022/03/07 04:53:27;;;;;;;16.08;12.65;;;;;;;;;;5054987;28;20021;-63
2022/03/07 04:55:52;;;;;;;13.38;11.48;;;;;;;;;;5054741;28;20040;-62
2022/03/07 04:58:18;;;;;;;12.25;10.95;;;;;;;;;;5054654;28;20037;-61
2022/03/07 05:00:43;;;;;;;12.77;11.25;;;;;;;;;;5054726;28;20056;-62
2022/03/07 05:03:08;;;;;;;12.60;11.20;;;;;;;;;;5054360;28;20368;-62
2022/03/07 05:05:34;;;;;;;13.73;11.05;;;;;;;;;;5053733;28;20114;-63
2022/03/07 05:07:59;;;;;;;13.10;11.43;;;;;;;;;;5054430;28;20506;-63
2022/03/07 05:10:25;;;;;;;14.60;11.30;;;;;;;;;;5054596;28;20046;-63
2022/03/07 05:12:50;;;;;;;14.55;11.68;;;;;;;;;;5054100;28;20025;-70
2022/03/07 05:15:15;;;;;;;13.15;11.35;;;;;;;;;;5054171;28;20016;-70
2022/03/07 05:17:42;;;;;;;13.25;11.95;;;;;;;;;;5054076;28;20029;-70
2022/03/07 05:20:08;;;;;;;12.60;11.27;;;;;;;;;;5054077;28;20013;-70
2022/03/07 05:22:34;;;;;;;12.55;11.05;;;;;;;;;;5053288;28;20532;-70
2022/03/07 05:24:59;;;;;;;14.95;11.88;;;;;;;;;;5054044;28;20025;-70
2022/03/07 05:27:25;;;;;;;14.10;12.02;;;;;;;;;;5054007;28;20484;-71
2022/03/07 05:29:50;;;;;;;14.70;12.00;;;;;;;;;;5052658;28;20021;-71
2022/03/07 05:32:17;;;;;;;14.38;11.80;;;;;;;;;;5053425;28;20024;-71
2022/03/07 05:34:42;;;;;;;14.10;12.48;;;;;;;;;;5053546;28;20027;-72
2022/03/07 05:37:08;;;;;;;14.77;12.63;;;;;;;;;;5053760;28;20116;-71
2022/03/07 05:39:33;;;;;;;24.55;20.52;;;;;;;;;;5052638;28;20517;-71
2022/03/07 05:41:58;;;;;;;40.42;31.10;;;;;;;;;;5053636;28;20025;-71
2022/03/07 05:44:24;;;;;;;50.55;38.33;;;;;;;;;;5053271;28;20414;-71
2022/03/07 05:46:49;;;;;;;23.52;18.92;;;;;;;;;;5053197;28;20167;-71
2022/03/07 05:49:15;;;;;;;22.00;19.00;;;;;;;;;;5035690;28;20348;-71
2022/03/07 05:51:41;;;;;;;17.75;13.18;;;;;;;;;;5053300;28;20112;-71
2022/03/07 05:54:10;;;;;;;17.52;12.50;;;;;;;;;;5052810;28;20045;-71
2022/03/07 05:56:36;;;;;;;16.67;12.85;;;;;;;;;;5053797;28;20044;-70
2022/03/07 05:59:02;;;;;;;17.88;12.73;;;;;;;;;;5053644;28;20029;-70
2022/03/07 06:01:27;;;;;;;16.55;12.45;;;;;;;;;;5053758;28;20020;-70
2022/03/07 06:03:53;;;;;;;16.33;12.07;;;;;;;;;;5053678;28;20021;-70
2022/03/07 06:06:18;;;;;;;20.90;14.18;;;;;;;;;;5053186;28;20052;-70
2022/03/07 06:08:44;;;;;;;16.60;13.10;;;;;;;;;;5053148;28;20118;-70
2022/03/07 06:11:09;;;;;;;16.23;12.90;;;;;;;;;;5052953;28;20439;-71
2022/03/07 06:13:35;;;;;;;27.13;17.73;;;;;;;;;;5053044;28;20017;-70
2022/03/07 06:16:00;;;;;;;20.35;13.30;;;;;;;;;;5052914;28;20082;-70
2022/03/07 06:18:26;;;;;;;14.35;12.45;;;;;;;;;;5053094;28;20459;-70
2022/03/07 06:20:51;;;;;;;15.65;12.65;;;;;;;;;;5051795;28;20021;-70
2022/03/07 06:23:17;;;;;;;35.55;20.00;;;;;;;;;;5051423;28;20198;-70
2022/03/07 06:25:43;;;;;;;15.10;12.77;;;;;;;;;;5052800;28;20040;-70
2022/03/07 06:28:09;;;;;;;15.32;12.25;;;;;;;;;;5052955;28;20471;-70
2022/03/07 06:30:34;;;;;;;15.65;12.63;;;;;;;;;;5052918;28;20033;-70
2022/03/07 06:32:59;;;;;;;17.65;13.10;;;;;;;;;;5052796;28;20025;-70
2022/03/07 06:35:25;;;;;;;15.80;11.77;;;;;;;;;;5052731;28;20025;-70
2022/03/07 06:37:51;;;;;;;15.48;11.90;;;;;;;;;;5052642;28;20526;-70
2022/03/07 06:40:18;;;;;;;15.73;12.63;;;;;;;;;;5052736;28;20024;-70
2022/03/07 06:42:43;;;;;;;15.65;12.93;;;;;;;;;;5051215;28;20378;-70
2022/03/07 06:45:12;;;;;;;14.35;12.52;;;;;;;;;;5055763;28;20021;-70
2022/03/07 06:47:37;;;;;;;17.08;13.32;;;;;;;;;;5056691;28;20376;-70
2022/03/07 06:50:03;;;;;;;16.05;12.10;;;;;;;;;;5055383;28;20029;-70
2022/03/07 06:52:28;;;;;;;18.05;12.73;;;;;;;;;;5056630;28;20025;-70
2022/03/07 06:54:54;;;;;;;18.60;13.15;;;;;;;;;;5056544;28;20399;-70
2022/03/07 06:57:20;;;;;;;19.55;13.55;;;;;;;;;;5056498;28;20024;-70
2022/03/07 06:59:45;;;;;;;16.70;12.73;;;;;;;;;;5056582;28;20025;-70
2022/03/07 07:02:11;;;;;;;20.67;14.30;;;;;;;;;;5056374;28;20032;-70
2022/03/07 07:04:37;;;;;;;19.80;14.13;;;;;;;;;;5056459;28;20036;-70
2022/03/07 07:07:02;;;;;;;18.98;13.05;;;;;;;;;;5056291;28;20021;-70
2022/03/07 07:09:28;;;;;;;24.02;15.02;;;;;;;;;;5056313;28;20063;-70
2022/03/07 07:11:53;;;;;;;20.00;13.30;;;;;;;;;;5056195;28;20028;-70
2022/03/07 07:14:19;;;;;;;23.85;14.50;;;;;;;;;;5054963;28;20040;-70
2022/03/07 07:16:44;;;;;;;16.92;13.18;;;;;;;;;;5056179;28;20045;-70
2022/03/07 07:19:10;;;;;;;21.50;13.73;;;;;;;;;;5056121;28;20032;-70
2022/03/07 07:21:35;;;;;;;20.63;13.82;;;;;;;;;;5054580;28;20462;-70
2022/03/07 07:24:00;;;;;;;19.27;13.73;;;;;;;;;;5056017;28;20029;-70
2022/03/07 07:26:26;;;;;;;19.35;13.13;;;;;;;;;;5055951;28;20064;-70
2022/03/07 07:28:52;;;;;;;19.27;13.65;;;;;;;;;;5056135;28;20505;-70
2022/03/07 07:31:17;;;;;;;18.23;13.25;;;;;;;;;;5056184;28;20057;-70
2022/03/07 07:33:44;;;;;;;16.58;12.55;;;;;;;;;;5055900;28;20029;-70
2022/03/07 07:36:09;;;;;;;16.35;12.63;;;;;;;;;;5055447;28;20104;-70
2022/03/07 07:38:34;;;;;;;17.13;12.88;;;;;;;;;;5055962;28;20124;-71
2022/03/07 07:41:00;;;;;;;17.58;12.65;;;;;;;;;;5055779;28;20025;-70
2022/03/07 07:43:25;;;;;;;17.27;12.93;;;;;;;;;;5055694;28;20033;-70
2022/03/07 07:45:51;;;;;;;17.23;12.93;;;;;;;;;;5055741;28;20125;-70
2022/03/07 07:48:16;;;;;;;17.45;12.45;;;;;;;;;;5055700;28;20033;-70
2022/03/07 07:50:41;;;;;;;16.27;12.30;;;;;;;;;;5055634;28;20024;-70
2022/03/07 07:53:07;;;;;;;14.75;11.40;;;;;;;;;;5055568;28;20364;-70
2022/03/07 07:55:32;;;;;;;15.40;11.55;;;;;;;;;;5054995;28;20423;-70
2022/03/07 07:57:58;;;;;;;18.25;10.85;;;;;;;;;;5055288;28;20043;-71
2022/03/07 08:00:23;;;;;;;16.85;11.73;;;;;;;;;;5055306;28;20025;-70
2022/03/07 08:02:50;;;;;;;16.48;11.63;;;;;;;;;;5055193;28;20040;-70
2022/03/07 08:05:16;;;;;;;15.98;11.63;;;;;;;;;;5055265;28;20013;-70
2022/03/07 08:07:42;;;;;;;14.52;11.23;;;;;;;;;;5055325;28;20455;-70
2022/03/07 08:10:08;;;;;;;16.52;11.80;;;;;;;;;;5055251;28;20447;-70
2022/03/07 08:12:34;;;;;;;17.98;11.73;;;;;;;;;;5055133;28;20033;-70
2022/03/07 08:14:59;;;;;;;16.92;10.73;;;;;;;;;;5055066;28;20066;-69
2022/03/07 08:17:25;;;;;;;20.75;12.60;;;;;;;;;;5055058;28;20036;-69
2022/03/07 08:19:50;;;;;;;15.20;11.60;;;;;;;;;;5055113;28;20387;-68
2022/03/07 08:22:16;;;;;;;17.42;11.93;;;;;;;;;;5052997;28;20045;-68
2022/03/07 08:24:41;;;;;;;15.55;11.40;;;;;;;;;;5054797;28;20379;-68
2022/03/07 08:27:07;;;;;;;27.92;14.50;;;;;;;;;;5054846;28;20124;-68
2022/03/07 08:29:32;;;;;;;16.05;11.18;;;;;;;;;;5054780;28;20040;-68
2022/03/07 08:31:58;;;;;;;28.83;15.68;;;;;;;;;;5054429;28;20021;-68
2022/03/07 08:34:23;;;;;;;15.57;11.55;;;;;;;;;;5054772;28;20028;-68
2022/03/07 08:36:49;;;;;;;16.77;11.52;;;;;;;;;;5054536;28;20025;-68
2022/03/07 08:39:14;;;;;;;17.77;11.18;;;;;;;;;;5054724;28;20128;-68
2022/03/07 08:41:39;;;;;;;13.27;10.10;;;;;;;;;;5054687;28;20017;-68
2022/03/07 08:44:05;;;;;;;18.05;11.05;;;;;;;;;;5053258;28;20032;-68
2022/03/07 08:46:30;;;;;;;18.15;12.30;;;;;;;;;;5054584;28;20016;-68
2022/03/07 08:48:56;;;;;;;19.85;11.90;;;;;;;;;;5054444;28;20029;-68
2022/03/07 08:51:21;;;;;;;14.70;9.52;;;;;;;;;;5054286;28;20434;-68
2022/03/07 08:53:47;;;;;;;17.92;11.57;;;;;;;;;;5054393;28;20432;-68
2022/03/07 08:56:12;;;;;;;17.08;10.77;;;;;;;;;;5054352;28;20036;-68
2022/03/07 08:58:38;;;;;;;15.55;10.25;;;;;;;;;;5054294;28;20048;-68
2022/03/07 09:01:03;;;;;;;13.63;10.38;;;;;;;;;;5054216;28;20029;-68
2022/03/07 09:03:29;;;;;;;13.98;10.13;;;;;;;;;;5054085;28;20025;-68
2022/03/07 09:05:54;;;;;;;13.27;9.77;;;;;;;;;;5053968;28;20017;-68
2022/03/07 09:08:20;;;;;;;12.07;9.80;;;;;;;;;;5053414;28;20087;-68
2022/03/07 09:10:45;;;;;;;12.65;9.57;;;;;;;;;;5054083;28;20017;-68
2022/03/07 09:13:11;;;;;;;14.88;10.20;;;;;;;;;;5054085;28;20477;-68
2022/03/07 09:15:36;;;;;;;15.35;9.98;;;;;;;;;;5052885;28;20096;-68
2022/03/07 09:18:02;;;;;;;14.05;10.65;;;;;;;;;;5052768;28;20071;-68
2022/03/07 09:20:27;;;;;;;21.90;12.63;;;;;;;;;;5053910;28;20021;-68
2022/03/07 09:22:53;;;;;;;18.75;11.43;;;;;;;;;;5053234;28;20072;-68
2022/03/07 09:25:18;;;;;;;14.63;10.30;;;;;;;;;;5053740;28;20467;-68
2022/03/07 09:27:44;;;;;;;14.30;9.55;;;;;;;;;;5053690;28;20017;-68
2022/03/07 09:30:10;;;;;;;14.55;10.32;;;;;;;;;;5052654;28;20025;-68
2022/03/07 09:32:35;;;;;;;15.35;10.32;;;;;;;;;;5053630;28;20379;-68
2022/03/07 09:35:01;;;;;;;14.73;9.65;;;;;;;;;;5053653;28;20029;-68
2022/03/07 09:37:33;;;;;;;27.90;16.52;;;;;;;;;;5052242;28;20028;-68
2022/03/07 09:39:58;;;;;;;19.35;13.10;;;;;;;;;;5053475;28;20383;-68
2022/03/07 09:42:24;;;;;;;14.57;9.98;;;;;;;;;;5053396;28;20024;-69
2022/03/07 09:44:51;;;;;;;15.02;9.57;;;;;;;;;;5053527;28;20391;-69
2022/03/07 09:47:18;;;;;;;16.38;10.82;;;;;;;;;;5053367;28;20021;-69
2022/03/07 09:49:44;;;;;;;11.82;8.77;;;;;;;;;;5053362;28;20072;-68
2022/03/07 09:52:11;;;;;;;12.13;8.68;;;;;;;;;;5053285;28;20100;-69
2022/03/07 09:54:37;;;;;;;15.80;11.07;;;;;;;;;;5053418;28;20020;-69
2022/03/07 09:57:02;;;;;;;12.98;9.75;;;;;;;;;;5052063;28;20485;-68
2022/03/07 09:59:30;;;;;;;13.85;10.45;;;;;;;;;;5052138;28;20051;-69
2022/03/07 10:02:00;;;;;;;11.60;8.13;;;;;;;;;;5053307;28;20071;-67
2022/03/07 10:04:26;;;;;;;15.35;8.32;;;;;;;;;;5053188;28;20059;-70
2022/03/07 10:06:52;;;;;;;9.48;6.03;;;;;;;;;;5053187;28;20016;-70
2022/03/07 10:09:21;;;;;;;13.55;8.07;;;;;;;;;;5051854;28;20498;-70
2022/03/07 10:11:50;;;;;;;16.77;10.43;;;;;;;;;;5051845;28;20071;-71
2022/03/07 10:14:16;;;;;;;16.40;9.77;;;;;;;;;;5051758;28;20082;-71
2022/03/07 10:16:43;;;;;;;51.30;25.50;;;;;;;;;;5049558;28;20426;-71
2022/03/07 10:19:12;;;;;;;169.15;82.43;;;;;;;;;;5051599;28;20043;-70
2022/03/07 10:21:46;;;;;;;12.98;8.90;;;;;;;;;;5052563;28;20036;-72
2022/03/07 10:24:11;;;;;;;20.20;13.43;;;;;;;;;;5052945;28;20025;-71
2022/03/07 10:26:37;;;;;;;222.80;105.57;;;;;;;;;;5051148;28;20059;-72
2022/03/07 10:29:04;;;;;;;27.08;18.10;;;;;;;;;;5052752;28;20071;-71
2022/03/07 10:31:29;;;;;;;179.63;78.50;;;;;;;;;;5051636;28;20028;-71
2022/03/07 10:34:00;;;;;;;19.52;10.85;;;;;;;;;;5052861;28;20037;-71
2022/03/07 10:36:30;;;;;;;8.15;6.32;;;;;;;;;;5052777;28;20051;-71
2022/03/07 10:38:55;;;;;;;7.03;5.53;;;;;;;;;;5052798;28;20028;-71
2022/03/07 10:41:31;;;;;;;5.55;5.05;;;;;;;;;;5052661;28;20029;-70
2022/03/07 10:43:56;;;;;;;53.28;24.38;;;;;;;;;;5052572;28;20069;-71
2022/03/07 10:46:26;;;;;;;103.05;37.17;;;;;;;;;;5052587;28;20100;-71
2022/03/07 10:48:51;;;;;;;396.53;153.63;;;;;;;;;;5052594;28;20040;-70
2022/03/07 10:51:17;;;;;;;1114.85;540.78;;;;;;;;;;5052571;28;20074;-71
2022/03/07 10:53:43;;;;;;;942.35;438.58;;;;;;;;;;5051337;28;20033;-71
2022/03/07 10:56:10;;;;;;;245.20;97.30;;;;;;;;;;5052605;28;20367;-72
2022/03/07 10:58:44;;;;;;;11.18;6.88;;;;;;;;;;5052641;28;20056;-71
2022/03/07 11:01:10;;;;;;;20.48;10.13;;;;;;;;;;5052724;28;20035;-71
2022/03/07 11:03:37;;;;;;;93.60;37.58;;;;;;;;;;5051143;28;20029;-71
2022/03/07 11:06:03;;;;;;;9.10;6.00;;;;;;;;;;5052477;28;20021;-71
2022/03/07 11:08:28;;;;;;;7.03;5.65;;;;;;;;;;5052444;28;20020;-71
2022/03/07 11:10:58;;;;;;;384.85;167.40;;;;;;;;;;5052347;28;20032;-71
2022/03/07 11:13:26;;;;;;;492.00;207.87;;;;;;;;;;5052485;28;20387;-71
2022/03/07 11:15:53;;;;;;;17.13;10.23;;;;;;;;;;5052382;28;20733;-71
2022/03/07 11:18:19;;;;;;;11.75;7.25;;;;;;;;;;5052426;28;20035;-71
2022/03/07 11:20:45;;;;;;;123.30;52.88;;;;;;;;;;5051181;28;20459;-72
2022/03/07 11:23:12;;;;;;;9.13;6.55;;;;;;;;;;5050377;28;20568;-71
2022/03/07 11:25:38;;;;;;;259.08;118.10;;;;;;;;;;5051060;28;20057;-71
2022/03/07 11:28:04;;;;;;;224.23;107.97;;;;;;;;;;5051030;28;20455;-71
2022/03/07 11:30:33;;;;;;;100.13;54.03;;;;;;;;;;5052437;28;20017;-71
2022/03/07 11:33:07;;;;;;;10.82;7.32;;;;;;;;;;5055932;28;20027;-71
2022/03/07 11:35:32;;;;;;;75.35;38.80;;;;;;;;;;5055952;28;20045;-71
2022/03/07 11:38:08;;;;;;;43.40;23.90;;;;;;;;;;5055882;28;20021;-71
2022/03/07 11:40:34;;;;;;;204.27;136.52;;;;;;;;;;5055829;28;20040;-71
2022/03/07 11:43:06;;;;;;;110.55;62.28;;;;;;;;;;5054308;28;20383;-71
2022/03/07 11:45:37;;;;;;;25.52;18.70;;;;;;;;;;5055787;28;20029;-71
2022/03/07 11:48:11;;;;;;;16.00;12.02;;;;;;;;;;5055760;28;20102;-71
2022/03/07 11:50:37;;;;;;;14.73;9.20;;;;;;;;;;5055599;28;20399;-71
2022/03/07 11:53:03;;;;;;;9.38;5.60;;;;;;;;;;5054358;28;20074;-71
2022/03/07 11:55:29;;;;;;;15.35;11.50;;;;;;;;;;5055673;28;20025;-71
2022/03/07 11:57:59;;;;;;;7.25;5.97;;;;;;;;;;5054301;28;20505;-72
2022/03/07 12:00:27;;;;;;;7.80;7.00;;;;;;;;;;5055437;28;20033;-71
2022/03/07 12:02:54;;;;;;;7.55;4.88;;;;;;;;;;5055205;28;20287;-71
2022/03/07 12:05:27;;;;;;;13.43;11.52;;;;;;;;;;5055258;28;20052;-71
2022/03/07 12:08:05;;;;;;;8.25;5.85;;;;;;;;;;5055188;28;20057;-71
2022/03/07 12:10:30;;;;;;;5.40;4.05;;;;;;;;;;5055221;28;20364;-71
2022/03/07 12:13:03;;;;;;;5.25;4.53;;;;;;;;;;5053869;28;20028;-72
2022/03/07 12:15:29;;;;;;;13.25;10.35;;;;;;;;;;5055061;28;20063;-71
2022/03/07 12:17:56;;;;;;;14.50;8.68;;;;;;;;;;5053891;28;20435;-71
2022/03/07 12:20:21;;;;;;;38.00;17.67;;;;;;;;;;5053717;28;20111;-70
2022/03/07 12:22:47;;;;;;;39.60;19.50;;;;;;;;;;5054255;28;20128;-70
2022/03/07 12:25:13;;;;;;;6.10;4.18;;;;;;;;;;5054927;28;20115;-70
2022/03/07 12:27:39;;;;;;;236.45;93.53;;;;;;;;;;5054799;28;20029;-70
2022/03/07 12:30:06;;;;;;;276.80;106.50;;;;;;;;;;5055050;28;20112;-70
2022/03/07 12:32:31;;;;;;;32.92;15.38;;;;;;;;;;5055150;28;20075;-70
2022/03/07 12:34:57;;;;;;;13.55;7.60;;;;;;;;;;5055175;28;20041;-70
2022/03/07 12:37:22;;;;;;;5.05;3.95;;;;;;;;;;5054745;28;20029;-70
2022/03/07 12:39:49;;;;;;;533.53;240.35;;;;;;;;;;5053444;28;20036;-70
2022/03/07 12:42:16;;;;;;;96.05;36.42;;;;;;;;;;5053244;28;20426;-70
2022/03/07 12:44:41;;;;;;;19.85;11.07;;;;;;;;;;5054558;28;20040;-70
2022/03/07 12:47:08;;;;;;;383.15;139.77;;;;;;;;;;5054524;28;20492;-70
2022/03/07 12:49:33;;;;;;;18.55;9.93;;;;;;;;;;5053208;28;20098;-70
2022/03/07 12:52:05;;;;;;;11.25;5.20;;;;;;;;;;5036075;28;20538;-70
2022/03/07 12:54:33;;;;;;;200.77;69.15;;;;;;;;;;5054684;28;20040;-70
2022/03/07 12:56:59;;;;;;;31.00;11.95;;;;;;;;;;5054587;28;20021;-70
2022/03/07 12:59:25;;;;;;;446.05;152.85;;;;;;;;;;5053285;28;20021;-70
2022/03/07 13:01:51;;;;;;;62.70;22.67;;;;;;;;;;5054495;28;20043;-70
2022/03/07 13:04:21;;;;;;;123.32;34.83;;;;;;;;;;5053313;28;20033;-70
2022/03/07 13:06:51;;;;;;;31.88;13.98;;;;;;;;;;5054430;28;20124;-70
2022/03/07 13:09:19;;;;;;;564.05;193.30;;;;;;;;;;5054586;28;20025;-70
2022/03/07 13:11:47;;;;;;;785.38;292.15;;;;;;;;;;5054260;28;20082;-70
2022/03/07 13:14:19;;;;;;;607.67;206.52;;;;;;;;;;5053366;28;20032;-70
2022/03/07 13:16:44;;;;;;;46.67;21.48;;;;;;;;;;5054416;28;20025;-70
2022/03/07 13:19:11;;;;;;;7.90;4.70;;;;;;;;;;5054414;28;20493;-70
2022/03/07 13:21:38;;;;;;;77.05;22.02;;;;;;;;;;5053940;28;20139;-70
2022/03/07 13:24:04;;;;;;;37.53;12.65;;;;;;;;;;5053966;28;20037;-70
2022/03/07 13:26:30;;;;;;;238.13;69.13;;;;;;;;;;5052838;28;20070;-70
2022/03/07 13:29:02;;;;;;;1048.88;336.20;;;;;;;;;;5054002;28;20020;-70
2022/03/07 13:31:27;;;;;;;1105.72;342.40;;;;;;;;;;5054047;28;20590;-70
2022/03/07 13:33:57;;;;;;;1977.57;614.05;;;;;;;;;;5054056;28;20108;-70
2022/03/07 13:36:22;;;;;;;745.57;212.83;;;;;;;;;;5052660;28;20368;-73
2022/03/07 13:38:51;;;;;;;1052.70;314.08;;;;;;;;;;5053728;28;20275;-73
2022/03/07 13:41:17;;;;;;;904.03;273.45;;;;;;;;;;5053694;28;20362;-73
2022/03/07 13:43:42;;;;;;;171.45;47.75;;;;;;;;;;5053751;28;20032;-73
2022/03/07 13:46:15;;;;;;;205.50;52.55;;;;;;;;;;5053841;28;20033;-73
2022/03/07 13:48:40;;;;;;;1460.43;440.33;;;;;;;;;;5053835;28;20027;-73
2022/03/07 13:51:06;;;;;;;1034.07;347.65;;;;;;;;;;5053556;28;20013;-73
2022/03/07 13:53:32;;;;;;;597.10;184.60;;;;;;;;;;5053346;28;20513;-73
2022/03/07 13:56:00;;;;;;;1423.47;406.10;;;;;;;;;;5053717;28;20111;-73
2022/03/07 13:58:32;;;;;;;537.90;156.75;;;;;;;;;;5053862;28;20475;-73
2022/03/07 14:01:06;;;;;;;652.83;176.02;;;;;;;;;;5053692;28;20037;-73
2022/03/07 14:03:31;;;;;;;41.95;14.05;;;;;;;;;;5053329;28;20025;-73
2022/03/07 14:05:59;;;;;;;9.15;7.28;;;;;;;;;;5052291;28;20023;-73
2022/03/07 14:08:33;;;;;;;14.40;8.50;;;;;;;;;;5052024;28;20033;-73
2022/03/07 14:11:01;;;;;;;138.90;37.40;;;;;;;;;;5052497;28;20402;-73
2022/03/07 14:13:42;;;;;;;67.90;23.42;;;;;;;;;;5051987;28;20115;-73